Date,TemperatureHighF,TemperatureAvgF,TemperatureLowF,DewpointHighF,DewpointAvgF,DewpointLowF,HumidityHigh,HumidityAvg,HumidityLow,PressureMaxIn,PressureMinIn,WindSpeedMaxMPH,WindSpeedAvgMPH,GustSpeedMaxMPH,PrecipitationSumIn
2013-2-1,58,42,29,27,21,13,71,47,18,30.29,30.19,7,1,11,0.00
2013-2-2,57,43,30,25,22,17,72,45,22,30.33,30.23,5,1,8,0.00
2013-2-3,48,42,35,39,31,22,93,66,38,30.25,30.03,8,1,11,0.04
2013-2-4,54,41,29,35,29,24,95,67,35,30.10,30.02,6,1,12,0.03
2013-2-5,60,43,31,31,27,23,73,56,30,30.09,29.99,10,2,17,0.00
2013-2-6,52,43,36,33,30,27,74,60,43,30.08,29.94,11,3,20,0.00
2013-2-7,55,41,28,31,27,24,84,61,35,30.13,29.95,11,3,19,0.00
2013-2-8,42,38,27,31,22,8,84,54,30,29.95,29.70,24,12,34,0.00
2013-2-9,28,25,22,24,22,19,92,87,78,29.92,29.65,15,6,24,0.04
2013-2-10,32,27,21,24,21,16,87,76,62,29.93,29.83,15,5,20,0.03
2013-2-11,32,24,13,24,16,10,91,73,47,30.06,29.88,6,2,13,0.01
2013-2-12,38,27,15,16,11,7,85,55,27,30.20,30.06,7,2,11,0.01
2013-2-13,47,33,23,23,16,11,73,51,33,30.18,30.10,6,2,11,0.00
2013-2-14,50,37,24,23,20,17,79,54,31,30.21,30.10,10,3,16,0.00
2013-2-15,55,40,29,20,16,6,62,40,18,30.37,30.21,7,2,13,0.00
2013-2-16,62,42,26,15,8,3,40,27,11,30.37,30.10,7,2,14,0.00
2013-2-17,53,46,35,14,11,6,38,24,18,30.09,29.86,18,6,25,0.00
2013-2-18,54,42,29,17,13,8,45,31,16,30.06,29.95,10,3,19,0.00
2013-2-19,48,39,30,25,14,6,62,37,25,29.96,29.59,15,6,28,0.00
2013-2-20,35,28,24,27,22,19,91,81,61,29.80,29.50,14,5,29,0.06
2013-2-21,36,29,23,26,23,19,88,80,57,29.95,29.78,11,4,19,0.01
2013-2-22,42,29,16,20,16,11,88,61,34,30.09,29.94,12,2,17,0.01
2013-2-23,46,33,20,22,17,12,81,53,35,30.09,29.78,17,5,27,0.01
2013-2-24,35,27,19,22,11,5,91,53,30,30.04,29.79,17,8,33,0.00
2013-2-25,49,33,19,12,9,6,57,37,17,30.14,29.98,9,3,17,0.00
2013-2-26,43,34,26,11,5,0,41,29,18,30.11,29.94,14,5,24,0.00
2013-2-27,45,32,17,7,2,-1,47,29,18,30.25,30.11,10,3,15,0.00
2013-2-28,51,37,24,9,3,-2,35,25,14,30.38,30.25,10,2,16,0.00